createdAt,value
2018-09-13T00:05:47.260Z,99.99
2018-09-13T00:06:52.946Z,99.99
2018-09-13T00:07:47.135Z,99.99
2018-09-13T00:08:47.112Z,99.99
2018-09-13T00:09:47.082Z,99.99
2018-09-13T00:10:48.067Z,99.99
2018-09-13T00:11:47.039Z,99.99
2018-09-13T00:12:49.013Z,99.99
2018-09-13T00:13:46.977Z,99.99
2018-09-13T00:14:48.971Z,99.99
2018-09-13T00:15:46.929Z,99.99
2018-09-13T00:16:52.439Z,99.99
2018-09-13T00:17:46.870Z,99.99
2018-09-13T00:18:52.454Z,99.99
2018-09-13T00:19:46.830Z,99.99
2018-09-13T00:20:47.806Z,99.99
2018-09-13T00:21:46.780Z,99.99
2018-09-13T00:22:46.762Z,99.99
2018-09-13T00:23:46.747Z,99.99
2018-09-13T00:24:47.707Z,99.99
2018-09-13T00:25:46.686Z,99.99
2018-09-13T00:26:51.433Z,99.99
2018-09-13T00:27:46.638Z,99.99
2018-09-13T00:28:47.620Z,99.99
2018-09-13T00:29:46.570Z,99.99
2018-09-13T00:30:46.559Z,99.99
2018-09-13T00:31:46.526Z,99.99
2018-09-13T00:32:47.518Z,99.99
2018-09-13T00:33:47.428Z,99.99
2018-09-13T00:34:46.467Z,99.99
2018-09-13T00:35:46.437Z,99.99
2018-09-13T00:36:46.408Z,99.99
2018-09-13T00:37:46.387Z,99.99
2018-09-13T00:39:40.726Z,99.99
2018-09-13T00:40:40.675Z,99.99
2018-09-13T00:41:40.637Z,99.99
2018-09-13T00:42:40.629Z,99.99
2018-09-13T00:43:40.594Z,99.99
2018-09-13T00:44:41.576Z,99.99
2018-09-13T00:45:40.564Z,99.99
2018-09-13T00:46:40.526Z,99.99
2018-09-13T00:47:40.506Z,99.99
2018-09-13T00:48:40.477Z,99.99
2018-09-13T00:49:40.442Z,99.99
2018-09-13T00:50:40.417Z,99.99
2018-09-13T00:51:40.423Z,99.99
2018-09-13T00:52:40.371Z,99.99
2018-09-13T00:53:40.338Z,99.99
2018-09-13T00:54:40.329Z,99.99
2018-09-13T00:55:40.293Z,99.99
2018-09-13T00:56:40.273Z,99.99
2018-09-13T00:57:40.255Z,99.99
2018-09-13T00:58:40.245Z,99.99
2018-09-13T00:59:40.191Z,99.99
2018-09-13T01:00:40.185Z,99.99
2018-09-13T01:01:40.145Z,99.99
2018-09-13T01:02:40.130Z,99.99
2018-09-13T01:03:40.092Z,99.99
2018-09-13T01:04:40.072Z,99.99
2018-09-13T01:05:40.038Z,99.99
2018-09-13T01:06:41.039Z,99.99
2018-09-13T01:07:39.992Z,99.99
2018-09-13T01:08:39.977Z,99.99
2018-09-13T01:09:39.937Z,99.99
2018-09-13T01:10:39.945Z,99.99
2018-09-13T01:11:39.900Z,99.99
2018-09-13T01:12:39.864Z,99.99
2018-09-13T01:13:39.846Z,99.99
2018-09-13T01:14:40.848Z,99.99
2018-09-13T01:15:39.789Z,99.99
2018-09-13T01:16:39.775Z,99.99
2018-09-13T01:17:39.734Z,99.99
2018-09-13T01:18:39.730Z,99.99
2018-09-13T01:19:39.685Z,99.99
2018-09-13T01:20:40.671Z,99.99
2018-09-13T01:21:39.636Z,99.99
2018-09-13T01:22:39.621Z,99.99
2018-09-13T01:23:39.589Z,99.99
2018-09-13T01:25:28.455Z,99.99
2018-09-13T01:26:28.389Z,99.99
2018-09-13T01:27:28.380Z,99.99
2018-09-13T01:28:28.356Z,99.99
2018-09-13T01:29:28.328Z,99.99
2018-09-13T01:30:28.297Z,99.99
2018-09-13T01:31:28.273Z,99.99
2018-09-13T01:32:28.237Z,99.99
2018-09-13T01:33:29.222Z,99.99
2018-09-13T01:34:28.194Z,99.99
2018-09-13T01:35:28.174Z,99.99
2018-09-13T01:36:28.141Z,99.99
2018-09-13T01:37:28.119Z,99.99
2018-09-13T01:38:28.093Z,99.99
2018-09-13T01:39:28.070Z,99.99
2018-09-13T01:40:28.050Z,99.99
2018-09-13T01:41:28.036Z,99.99
2018-09-13T01:42:28.001Z,99.99
2018-09-13T01:43:27.976Z,99.99
2018-09-13T01:44:27.963Z,99.99
2018-09-13T01:45:27.915Z,99.99
2018-09-13T01:46:27.887Z,99.99
2018-09-13T01:47:27.878Z,99.99
2018-09-13T01:48:27.847Z,99.99
2018-09-13T01:49:27.824Z,99.99
2018-09-13T01:50:27.784Z,99.99
2018-09-13T01:51:27.769Z,99.99
2018-09-13T01:52:27.741Z,99.99
2018-09-13T01:53:27.729Z,99.99
2018-09-13T01:54:27.683Z,99.99
2018-09-13T01:55:28.671Z,99.99
2018-09-13T01:56:27.638Z,99.99
2018-09-13T01:58:20.524Z,99.99
2018-09-13T01:59:21.473Z,99.99
2018-09-13T02:00:20.442Z,99.99
2018-09-13T02:01:20.436Z,99.99
2018-09-13T02:02:20.397Z,99.99
2018-09-13T02:03:21.377Z,99.99
2018-09-13T02:04:20.338Z,99.99
2018-09-13T02:05:20.315Z,99.99
2018-09-13T02:06:20.302Z,99.99
2018-09-13T02:07:20.275Z,99.99
2018-09-13T02:08:20.240Z,99.99
2018-09-13T02:09:20.226Z,99.99
2018-09-13T02:10:20.192Z,99.99
2018-09-13T02:11:20.197Z,99.99
2018-09-13T02:12:20.158Z,99.99
2018-09-13T02:13:20.114Z,99.99
2018-09-13T02:14:20.092Z,99.99
2018-09-13T02:15:21.074Z,99.99
2018-09-13T02:16:20.035Z,99.99
2018-09-13T02:17:21.018Z,99.99
2018-09-13T02:18:19.983Z,99.99
2018-09-13T02:19:19.961Z,99.99
2018-09-13T02:20:19.941Z,99.99
2018-09-13T02:21:20.926Z,99.99
2018-09-13T02:22:19.881Z,99.99
2018-09-13T02:23:19.866Z,99.99
2018-09-13T02:24:19.827Z,99.99
2018-09-13T02:25:20.813Z,99.99
2018-09-13T02:26:19.776Z,99.99
2018-09-13T02:27:19.800Z,99.99
2018-09-13T02:28:19.740Z,99.99
2018-09-13T02:29:19.720Z,99.99
2018-09-13T02:30:19.675Z,99.99
2018-09-13T02:31:19.666Z,99.99
2018-09-13T02:32:19.626Z,99.99
2018-09-13T02:33:19.610Z,99.99
2018-09-13T02:34:19.579Z,99.99
2018-09-13T02:35:19.560Z,99.99
2018-09-13T02:36:19.524Z,99.99
2018-09-13T02:37:19.504Z,99.99
2018-09-13T02:38:19.477Z,99.99
2018-09-13T02:39:19.457Z,99.99
2018-09-13T02:40:19.428Z,99.99
2018-09-13T02:41:19.407Z,99.99
2018-09-13T02:42:19.388Z,99.99
2018-09-13T02:43:19.359Z,99.99
2018-09-13T02:44:19.323Z,99.99
2018-09-13T02:45:21.314Z,99.99
2018-09-13T02:46:19.272Z,99.99
2018-09-13T02:47:20.251Z,99.99
2018-09-13T02:48:19.235Z,99.99
2018-09-13T02:49:19.304Z,99.99
2018-09-13T02:50:19.171Z,99.99
2018-09-13T02:51:20.159Z,99.99
2018-09-13T02:52:19.116Z,99.99
2018-09-13T02:53:20.111Z,99.99
2018-09-13T02:54:19.079Z,99.99
2018-09-13T02:55:21.046Z,99.99
2018-09-13T02:56:19.019Z,99.99
2018-09-13T02:57:21.003Z,99.99
2018-09-13T02:58:18.969Z,99.99
2018-09-13T02:59:18.953Z,99.99
2018-09-13T03:00:18.912Z,99.99
2018-09-13T03:01:19.905Z,99.99
2018-09-13T03:02:18.867Z,99.99
2018-09-13T03:03:18.875Z,99.99
2018-09-13T03:04:18.814Z,99.99
2018-09-13T03:05:18.787Z,99.99
2018-09-13T03:06:18.765Z,99.99
2018-09-13T03:07:18.736Z,99.99
2018-09-13T03:08:18.790Z,99.99
2018-09-13T03:09:21.265Z,99.99
2018-09-13T03:10:18.661Z,99.99
2018-09-13T03:11:18.643Z,99.99
2018-09-13T03:12:18.623Z,99.99
2018-09-13T03:13:18.605Z,99.99
2018-09-13T03:14:18.562Z,99.99
2018-09-13T03:15:18.541Z,99.99
2018-09-13T03:16:18.508Z,99.99
2018-09-13T03:17:18.494Z,99.99
2018-09-13T03:18:18.458Z,99.99
2018-09-13T03:19:18.445Z,99.99
2018-09-13T03:20:18.410Z,99.99
2018-09-13T03:21:18.406Z,99.99
2018-09-13T03:22:18.361Z,99.99
2018-09-13T03:23:18.341Z,99.99
2018-09-13T03:24:18.302Z,99.99
2018-09-13T03:25:18.287Z,99.99
2018-09-13T03:26:18.259Z,99.99
2018-09-13T03:27:18.238Z,99.99
2018-09-13T03:28:18.205Z,99.99
2018-09-13T03:29:18.187Z,99.99
2018-09-13T03:30:18.169Z,99.99
2018-09-13T03:31:18.139Z,99.99
2018-09-13T03:32:18.131Z,99.99
2018-09-13T03:33:18.093Z,99.99
2018-09-13T03:34:18.060Z,99.99
2018-09-13T03:35:18.034Z,99.99
2018-09-13T03:36:18.079Z,99.99
2018-09-13T03:37:18.065Z,99.99
2018-09-13T03:38:17.956Z,99.99
2018-09-13T03:39:17.993Z,99.99
2018-09-13T03:40:17.969Z,99.99
2018-09-13T03:41:18.891Z,99.99
2018-09-13T03:42:17.861Z,99.99
2018-09-13T03:43:17.841Z,99.99
2018-09-13T03:44:17.809Z,99.99
2018-09-13T03:45:17.788Z,99.99
2018-09-13T03:46:17.755Z,99.99
2018-09-13T03:47:17.726Z,99.99
2018-09-13T03:48:17.697Z,99.99
2018-09-13T12:03:16.038Z,85.62
2018-09-13T12:04:15.944Z,85.91
2018-09-13T12:05:20.733Z,85.42
2018-09-13T12:06:15.913Z,86.87
2018-09-13T12:07:15.881Z,85.81
2018-09-13T12:08:15.844Z,84.75
2018-09-13T12:09:16.825Z,86.00
2018-09-13T12:10:15.788Z,85.62
2018-09-13T12:11:15.778Z,85.95
2018-09-13T12:12:15.755Z,84.99
2018-09-13T12:13:20.685Z,83.93
2018-09-13T12:14:15.703Z,84.31
2018-09-13T12:15:20.233Z,84.41
2018-09-13T12:16:15.640Z,84.80
2018-09-13T12:17:15.619Z,82.97
2018-09-13T12:18:15.644Z,82.59
2018-09-13T12:19:15.656Z,82.49
2018-09-13T12:20:15.547Z,82.82
2018-09-13T12:21:16.527Z,83.30
2018-09-13T12:22:15.614Z,82.92
2018-09-13T12:23:15.468Z,83.40
2018-09-13T12:24:15.470Z,85.22
2018-09-13T12:25:18.818Z,85.89
2018-09-13T12:26:23.582Z,81.57
2018-09-13T12:27:18.795Z,80.71
2018-09-13T12:28:18.727Z,80.42
2018-09-13T12:29:18.709Z,80.09
2018-09-13T12:30:19.676Z,81.82
2018-09-13T12:31:18.657Z,82.15
2018-09-13T12:32:18.619Z,81.28
2018-09-13T12:33:18.594Z,81.96
2018-09-13T12:34:18.575Z,82.24
2018-09-13T12:35:18.544Z,81.96
2018-09-13T12:36:25.077Z,82.63
2018-09-13T12:37:18.498Z,82.76
2018-09-13T12:38:20.494Z,81.90
2018-09-13T12:39:18.458Z,80.36
2018-09-13T12:41:09.067Z,81.61
2018-09-13T12:42:09.996Z,80.84
2018-09-13T12:43:08.970Z,80.84
2018-09-13T12:44:08.952Z,80.94
2018-09-13T12:45:08.918Z,79.88
2018-09-13T12:46:08.908Z,79.11
2018-09-13T12:47:08.864Z,77.34
2018-09-13T12:48:08.849Z,77.53
2018-09-13T12:49:08.820Z,77.48
2018-09-13T12:50:09.833Z,76.81
2018-09-13T12:51:08.775Z,76.42
2018-09-13T12:52:09.796Z,76.81
2018-09-13T12:53:08.717Z,77.58
2018-09-13T12:54:08.703Z,77.29
2018-09-13T12:55:08.705Z,76.81
2018-09-13T12:56:08.659Z,76.81
2018-09-13T12:57:08.632Z,76.42
2018-09-13T12:58:08.603Z,76.14
2018-09-13T12:59:08.573Z,76.04
2018-09-13T13:00:09.551Z,76.81
2018-09-13T13:01:08.529Z,76.52
2018-09-13T13:02:13.277Z,76.32
2018-09-13T13:03:08.465Z,76.04
2018-09-13T13:04:08.444Z,75.56
2018-09-13T13:05:08.417Z,75.56
2018-09-13T13:06:08.405Z,74.79
2018-09-13T13:07:08.375Z,75.07
2018-09-13T13:08:08.350Z,76.32
2018-09-13T13:09:08.347Z,76.71
2018-09-13T13:10:14.290Z,74.73
2018-09-13T13:11:08.275Z,74.82
2018-09-13T13:12:08.265Z,76.07
2018-09-13T13:13:08.220Z,73.77
2018-09-13T13:14:10.202Z,74.25
2018-09-13T13:15:08.213Z,74.92
2018-09-13T13:16:08.155Z,74.54
2018-09-13T13:17:08.117Z,73.61
2018-09-13T13:19:05.002Z,72.26
2018-09-13T13:20:06.969Z,72.55
2018-09-13T13:21:04.952Z,71.78
2018-09-13T13:22:05.922Z,71.94
2018-09-13T13:23:04.888Z,72.03
2018-09-13T13:24:04.858Z,71.46
2018-09-13T13:25:04.832Z,72.42
2018-09-13T13:26:05.815Z,74.54
2018-09-13T13:27:04.831Z,74.15
2018-09-13T13:28:06.766Z,73.96
2018-09-13T13:29:04.724Z,74.73
2018-09-13T13:30:04.724Z,76.04
2018-09-13T13:31:04.688Z,77.19
2018-09-13T13:32:06.680Z,77.00
2018-09-13T13:33:04.628Z,78.92
2018-09-13T13:34:04.608Z,80.17
2018-09-13T13:35:04.576Z,79.21
2018-09-13T13:36:04.572Z,78.53
2018-09-13T13:37:04.534Z,78.40
2018-09-13T13:38:04.508Z,77.83
2018-09-13T13:39:04.493Z,78.02
2018-09-13T13:40:05.491Z,76.86
2018-09-13T13:41:04.496Z,77.83
2018-09-13T13:42:04.414Z,77.25
2018-09-13T13:43:04.399Z,76.67
2018-09-13T13:45:02.239Z,70.52
2018-09-13T13:46:02.108Z,70.43
2018-09-13T13:47:02.130Z,69.27
2018-09-13T13:48:02.065Z,68.89
2018-09-13T13:49:02.068Z,68.60
2018-09-13T13:50:03.033Z,68.83
2018-09-13T13:51:02.017Z,69.98
2018-09-13T13:52:01.975Z,70.56
2018-09-13T13:53:01.937Z,68.63
2018-09-13T13:54:01.922Z,68.44
2018-09-13T13:55:01.924Z,68.92
2018-09-13T13:56:01.872Z,69.15
2018-09-13T13:57:01.928Z,68.48
2018-09-13T13:58:01.861Z,71.36
2018-09-13T13:59:01.803Z,73.28
2018-09-13T14:00:02.774Z,73.28
2018-09-13T14:01:01.799Z,72.13
2018-09-13T14:02:01.730Z,71.36
2018-09-13T14:03:01.699Z,72.80
2018-09-13T14:04:02.693Z,71.65
2018-09-13T14:05:01.648Z,72.48
2018-09-13T14:06:01.628Z,73.44
2018-09-13T14:07:01.599Z,72.48
2018-09-13T14:08:01.581Z,73.06
2018-09-13T14:09:01.557Z,71.14
2018-09-13T14:10:02.585Z,74.15
2018-09-13T14:11:01.496Z,73.96
2018-09-13T14:12:01.475Z,73.44
2018-09-13T14:13:01.473Z,73.38
2018-09-13T14:14:01.430Z,71.65
2018-09-13T14:15:01.449Z,72.90
2018-09-13T14:16:01.385Z,73.28
2018-09-13T14:17:01.359Z,73.57
2018-09-13T14:18:01.326Z,73.09
2018-09-13T14:19:01.303Z,73.28
2018-09-13T14:20:01.306Z,74.15
2018-09-13T14:21:01.264Z,73.96
2018-09-13T14:22:02.268Z,73.09
2018-09-13T14:23:01.236Z,73.28
2018-09-13T14:24:01.181Z,73.67
2018-09-13T14:25:47.399Z,72.67
2018-09-13T14:26:47.375Z,73.28
2018-09-13T14:27:47.334Z,73.57
2018-09-13T14:28:47.300Z,72.90
2018-09-13T14:29:47.349Z,72.67
2018-09-13T14:30:47.258Z,73.09
2018-09-13T14:31:47.233Z,71.55
2018-09-13T14:32:47.209Z,70.88
2018-09-13T14:33:47.182Z,70.21
2018-09-13T14:34:47.165Z,70.21
2018-09-13T14:35:47.126Z,70.07
2018-09-13T14:36:47.120Z,72.58
2018-09-13T14:37:47.101Z,72.23
2018-09-13T14:38:47.056Z,71.81
2018-09-13T14:39:47.031Z,72.00
2018-09-13T14:40:47.014Z,74.02
2018-09-13T14:41:46.979Z,74.79
2018-09-13T14:42:47.791Z,77.86
2018-09-13T14:43:46.942Z,78.83
2018-09-13T14:44:46.915Z,78.73
2018-09-13T14:45:46.919Z,79.02
2018-09-13T14:46:46.860Z,78.25
2018-09-13T14:47:46.844Z,77.09
2018-09-13T14:48:46.820Z,76.90
2018-09-13T14:49:46.879Z,77.67
2018-09-13T14:50:46.860Z,77.96
2018-09-13T14:51:46.731Z,78.06
2018-09-13T14:52:46.728Z,78.67
2018-09-13T14:53:46.687Z,78.28
2018-09-13T14:54:46.715Z,78.09
2018-09-13T14:55:46.634Z,76.94
2018-09-13T14:56:47.626Z,74.82
2018-09-13T14:57:46.576Z,74.44
2018-09-13T14:58:46.580Z,73.86
2018-09-13T14:59:46.537Z,72.32
2018-09-13T15:00:46.510Z,73.67
2018-09-13T15:01:46.481Z,73.19
2018-09-13T15:02:46.461Z,73.28
2018-09-13T15:03:46.460Z,73.19
2018-09-13T15:04:46.538Z,73.86
2018-09-13T15:05:46.390Z,72.80
2018-09-13T15:06:46.381Z,73.28
2018-09-13T15:07:46.338Z,74.92
2018-09-13T15:08:46.312Z,74.82
2018-09-13T15:09:46.302Z,75.40
2018-09-13T15:10:46.287Z,74.73
2018-09-13T15:11:46.235Z,74.44
2018-09-13T15:12:46.248Z,74.92
2018-09-13T15:13:46.195Z,75.49
2018-09-13T15:14:46.169Z,74.92
2018-09-13T15:15:46.135Z,74.82
2018-09-13T15:16:46.120Z,74.44
2018-09-13T15:17:46.099Z,73.86
2018-09-13T15:18:46.107Z,73.35
2018-09-13T15:19:46.044Z,74.60
2018-09-13T15:20:46.032Z,75.56
2018-09-13T15:21:46.008Z,75.46
2018-09-13T15:22:45.988Z,75.37
2018-09-13T15:23:45.950Z,75.27
2018-09-13T15:24:45.994Z,74.69
2018-09-13T15:25:45.901Z,75.56
2018-09-13T15:26:45.887Z,74.79
2018-09-13T15:27:45.847Z,75.56
2018-09-13T15:28:45.859Z,76.32
2018-09-13T15:29:45.810Z,77.09
2018-09-13T15:30:45.778Z,76.71
2018-09-13T15:31:45.750Z,77.48
2018-09-13T15:32:45.739Z,77.48
2018-09-13T15:33:45.710Z,76.61
2018-09-13T15:34:45.679Z,77.19
2018-09-13T15:35:45.665Z,76.14
2018-09-13T15:36:45.655Z,77.86
2018-09-13T15:37:45.604Z,75.84
2018-09-13T15:38:45.605Z,75.37
2018-09-13T15:39:45.554Z,75.65
2018-09-13T15:40:45.533Z,76.04
2018-09-13T15:41:45.510Z,75.56
2018-09-13T15:42:45.484Z,75.75
2018-09-13T15:43:45.494Z,76.90
2018-09-13T15:44:45.455Z,77.67
2018-09-13T15:45:45.415Z,77.48
2018-09-13T15:46:45.392Z,76.90
2018-09-13T15:47:45.365Z,77.00
2018-09-13T15:48:45.343Z,77.58
2018-09-13T15:49:45.312Z,77.67
2018-09-13T15:50:45.287Z,77.58
2018-09-13T15:51:45.258Z,77.58
2018-09-13T15:52:45.305Z,77.00
2018-09-13T15:53:45.240Z,77.71
2018-09-13T15:54:45.204Z,77.19
2018-09-13T15:55:45.162Z,77.00
2018-09-13T15:56:47.157Z,77.00
2018-09-13T15:57:45.123Z,76.23
2018-09-13T15:58:46.106Z,76.81
2018-09-13T15:59:45.075Z,76.52
2018-09-13T16:00:45.075Z,77.86
2018-09-13T16:01:45.037Z,77.92
2018-09-13T16:02:45.021Z,78.30
2018-09-13T16:03:44.975Z,78.11
2018-09-13T16:04:44.969Z,78.21
2018-09-13T16:05:44.929Z,78.30
2018-09-13T16:06:44.928Z,77.44
2018-09-13T16:07:44.873Z,78.11
2018-09-13T16:08:44.899Z,78.50
2018-09-13T16:09:44.834Z,77.83
2018-09-13T16:10:44.808Z,77.15
2018-09-13T16:11:44.775Z,77.15
2018-09-13T16:12:44.821Z,78.21
2018-09-13T16:13:44.723Z,79.27
2018-09-13T16:14:44.707Z,79.94
2018-09-13T16:15:44.682Z,80.13
2018-09-13T16:16:45.659Z,80.17
2018-09-13T16:17:44.628Z,80.36
2018-09-13T16:18:44.620Z,79.36
2018-09-13T16:19:44.582Z,79.27
2018-09-13T16:20:44.571Z,79.27
2018-09-13T16:21:44.532Z,78.88
2018-09-13T16:22:44.517Z,78.30
2018-09-13T16:23:44.482Z,78.50
2018-09-13T16:24:44.477Z,78.50
2018-09-13T16:25:44.445Z,79.07
2018-09-13T16:26:44.420Z,79.07
2018-09-13T16:27:44.390Z,80.51
2018-09-13T16:28:44.388Z,80.04
2018-09-13T16:29:44.334Z,80.42
2018-09-13T16:30:45.356Z,80.32
2018-09-13T16:31:44.309Z,80.22
2018-09-13T16:32:44.270Z,80.13
2018-09-13T16:33:44.266Z,80.42
2018-09-13T16:34:44.279Z,79.65
2018-09-13T16:35:44.187Z,79.94
2018-09-13T16:36:44.187Z,79.27
2018-09-13T16:37:44.148Z,79.75
2018-09-13T16:38:44.127Z,79.65
2018-09-13T16:40:34.013Z,79.36
2018-09-13T16:41:33.958Z,79.36
2018-09-13T16:42:33.948Z,79.55
2018-09-13T16:43:33.904Z,80.32
2018-09-13T16:44:33.876Z,79.99
2018-09-13T16:45:33.856Z,80.96
2018-09-13T16:46:33.833Z,80.66
2018-09-13T16:47:34.907Z,79.99
2018-09-13T16:48:33.801Z,80.19
2018-09-13T16:49:33.769Z,80.76
2018-09-13T16:50:33.752Z,81.53
2018-09-13T16:51:34.722Z,81.53
2018-09-13T16:52:33.715Z,81.53
2018-09-13T16:53:33.681Z,80.57
2018-09-13T16:54:33.650Z,80.47
2018-09-13T16:55:33.616Z,80.57
2018-09-13T16:56:33.641Z,81.72
2018-09-13T16:57:33.568Z,81.34
2018-09-13T16:58:33.592Z,80.86
2018-09-13T16:59:33.523Z,81.24
2018-09-13T17:00:33.505Z,80.57
2018-09-13T17:01:33.471Z,80.96
2018-09-13T17:02:33.481Z,81.72
2018-09-13T17:03:33.441Z,82.20
2018-09-13T17:05:19.642Z,82.07
2018-09-13T17:06:19.641Z,82.35
2018-09-13T17:07:19.685Z,83.12
2018-09-13T17:08:19.569Z,84.37
2018-09-13T17:09:19.600Z,85.14
2018-09-13T17:10:19.529Z,85.42
2018-09-13T17:11:19.506Z,86.19
2018-09-13T17:12:19.479Z,85.71
2018-09-13T17:13:19.513Z,85.91
2018-09-13T17:14:19.431Z,85.96
2018-09-13T17:15:19.434Z,86.19
2018-09-13T17:16:19.399Z,87.40
2018-09-13T17:17:20.494Z,86.72
2018-09-13T17:18:19.352Z,87.21
2018-09-13T17:19:19.317Z,86.54
2018-09-13T17:20:19.286Z,86.82
2018-09-13T17:21:19.259Z,86.72
2018-09-13T17:22:19.232Z,86.92
2018-09-13T17:23:19.282Z,87.88
2018-09-13T17:24:19.192Z,88.07
2018-09-13T17:25:19.153Z,88.60
2018-09-13T17:26:19.148Z,88.79
2018-09-13T17:27:19.122Z,88.70
2018-09-13T17:28:19.110Z,88.60
2018-09-13T17:29:19.074Z,88.60
2018-09-13T17:30:19.132Z,88.89
2018-09-13T17:31:19.021Z,90.14
2018-09-13T17:32:19.040Z,90.04
2018-09-13T17:33:19.012Z,90.04
2018-09-13T17:34:18.946Z,90.14
2018-09-13T17:35:18.968Z,90.14
2018-09-13T17:36:18.922Z,90.14
2018-09-13T17:37:18.888Z,90.28
2018-09-13T17:38:18.851Z,91.09
2018-09-13T17:39:18.841Z,91.14
2018-09-13T17:40:18.893Z,91.19
2018-09-13T17:42:05.354Z,91.63
2018-09-13T17:43:05.323Z,92.39
2018-09-13T17:44:05.302Z,92.01
2018-09-13T17:45:05.272Z,93.44
2018-09-13T17:46:05.248Z,92.77
2018-09-13T17:47:05.223Z,93.73
2018-09-13T17:48:05.260Z,94.59
2018-09-13T17:49:05.182Z,94.79
2018-09-13T17:50:05.162Z,94.50
2018-09-13T17:51:05.155Z,95.17
2018-09-13T17:52:05.186Z,94.55
2018-09-13T17:53:05.111Z,95.17
2018-09-13T17:54:09.673Z,95.17
2018-09-13T17:55:05.030Z,95.51
2018-09-13T17:56:05.073Z,95.60
2018-09-13T17:57:04.990Z,96.47
2018-09-13T17:58:04.965Z,96.75
2018-09-13T17:59:04.943Z,96.84
2018-09-13T18:00:05.011Z,97.33
2018-09-13T18:01:04.890Z,97.61
2018-09-13T18:02:04.960Z,98.57
2018-09-13T18:03:04.842Z,98.67
2018-09-13T18:04:04.816Z,98.96
2018-09-13T18:05:04.789Z,99.82
2018-09-13T18:06:04.771Z,99.99
2018-09-13T18:07:04.750Z,99.99
2018-09-13T18:08:04.773Z,99.99
2018-09-13T18:09:04.744Z,99.99
2018-09-13T18:10:04.763Z,99.99
2018-09-13T18:11:04.701Z,99.99
2018-09-13T18:12:04.693Z,99.99
2018-09-13T18:13:04.595Z,99.99
2018-09-13T18:14:04.710Z,99.99
2018-09-13T18:15:04.580Z,99.99
2018-09-13T18:16:04.594Z,99.99
2018-09-13T18:17:04.507Z,99.99
2018-09-13T18:18:04.487Z,99.99
2018-09-13T18:19:04.456Z,99.99
2018-09-13T18:20:04.445Z,99.99
2018-09-13T18:21:04.401Z,99.99
2018-09-13T18:22:04.391Z,99.99
2018-09-13T18:23:04.372Z,99.99
2018-09-13T18:24:04.374Z,99.99
2018-09-13T18:25:04.306Z,99.99
2018-09-13T18:26:04.293Z,99.99
2018-09-13T18:27:04.261Z,99.99
2018-09-13T18:28:04.374Z,99.99
2018-09-13T18:29:04.207Z,99.99
2018-09-13T18:30:04.279Z,99.99
2018-09-13T18:31:04.170Z,99.99
2018-09-13T18:32:04.136Z,99.99
2018-09-13T18:33:04.117Z,99.99
2018-09-13T18:34:04.094Z,99.99
2018-09-13T18:35:04.086Z,99.99
2018-09-13T18:36:04.063Z,99.99
2018-09-13T18:37:04.021Z,99.99
2018-09-13T18:38:04.073Z,99.99
2018-09-13T18:39:03.980Z,99.99
2018-09-13T18:40:03.967Z,99.99
2018-09-13T18:41:03.925Z,99.99
2018-09-13T18:42:50.064Z,99.99
2018-09-13T18:43:50.025Z,99.99
2018-09-13T18:45:43.639Z,99.99
2018-09-13T18:46:43.512Z,99.99
2018-09-13T18:47:43.472Z,99.99
2018-09-13T18:48:43.458Z,99.99
2018-09-13T18:49:43.427Z,99.99
2018-09-13T18:50:43.383Z,99.99
2018-09-13T18:51:43.381Z,99.99
2018-09-13T18:52:43.356Z,99.99
2018-09-13T18:53:43.425Z,99.99
2018-09-13T18:54:43.276Z,99.99
2018-09-13T18:55:43.269Z,99.99
2018-09-13T18:56:43.248Z,99.99
2018-09-13T18:57:43.279Z,99.99
2018-09-13T18:58:43.185Z,99.99
2018-09-13T18:59:43.275Z,99.99
2018-09-13T19:00:43.234Z,99.99
2018-09-13T19:01:43.111Z,99.99
2018-09-13T19:02:43.081Z,99.99
2018-09-13T19:03:43.176Z,99.99
2018-09-13T19:04:43.032Z,99.99
2018-09-13T19:05:43.014Z,99.99
2018-09-13T19:06:42.989Z,99.99
2018-09-13T19:07:42.990Z,99.99
2018-09-13T19:08:42.944Z,99.99
2018-09-13T19:09:42.905Z,99.99
2018-09-13T19:11:29.135Z,99.99
2018-09-13T19:12:29.018Z,99.99
2018-09-13T19:13:30.008Z,99.99
2018-09-13T19:14:28.967Z,99.99
2018-09-13T19:15:28.948Z,99.99
2018-09-13T19:16:29.006Z,99.99
2018-09-13T19:17:28.895Z,99.99
2018-09-13T19:18:28.928Z,99.99
2018-09-13T19:19:28.847Z,99.99
2018-09-13T19:20:28.929Z,99.99
2018-09-13T19:21:28.808Z,99.99
2018-09-13T19:22:29.867Z,99.99
2018-09-13T19:23:28.743Z,99.99
2018-09-13T19:24:28.856Z,99.99
2018-09-13T19:25:28.761Z,99.99
2018-09-13T19:27:25.828Z,99.99
2018-09-13T19:28:25.751Z,99.99
2018-09-13T19:29:25.705Z,99.99
2018-09-13T19:30:25.691Z,99.99
2018-09-13T19:31:25.657Z,99.99
2018-09-13T19:32:25.635Z,99.99
2018-09-13T19:33:25.614Z,99.99
2018-09-13T19:34:25.700Z,99.99
2018-09-13T19:35:25.577Z,99.99
2018-09-13T19:36:25.545Z,99.99
2018-09-13T19:37:25.630Z,99.99
2018-09-13T19:38:25.486Z,99.99
2018-09-13T19:39:25.571Z,99.99
2018-09-13T19:40:25.455Z,99.99
2018-09-13T19:41:25.550Z,99.99
2018-09-13T19:42:25.392Z,99.99
2018-09-13T19:43:25.380Z,99.99
2018-09-13T19:44:25.334Z,99.99
2018-09-13T19:45:25.328Z,99.99
2018-09-13T19:47:14.105Z,99.99
2018-09-13T19:48:14.024Z,99.99
2018-09-13T19:49:15.036Z,99.99
2018-09-13T19:50:13.897Z,99.99
2018-09-13T19:51:14.027Z,99.99
2018-09-13T19:52:13.847Z,99.99
2018-09-13T19:53:13.831Z,99.99
2018-09-13T19:54:13.794Z,99.99
2018-09-13T19:55:14.863Z,99.99
2018-09-13T19:56:13.743Z,99.99
2018-09-13T19:57:13.722Z,99.99
2018-09-13T19:58:14.786Z,99.99
2018-09-13T19:59:13.659Z,99.99
2018-09-13T20:00:13.646Z,99.99
2018-09-13T20:01:13.617Z,99.99
2018-09-13T20:02:13.592Z,99.99
2018-09-13T20:03:13.568Z,99.99
2018-09-13T20:04:14.631Z,99.99
2018-09-13T20:05:13.515Z,99.99
2018-09-13T20:06:14.528Z,99.99
2018-09-13T20:07:13.495Z,99.99
2018-09-13T20:08:13.442Z,99.99
2018-09-13T20:09:13.525Z,99.99
2018-09-13T20:10:13.389Z,99.99
2018-09-13T20:11:15.422Z,99.99
2018-09-13T20:12:13.359Z,99.99
2018-09-13T20:13:15.403Z,99.99
2018-09-13T20:14:13.362Z,99.99
2018-09-13T20:15:14.281Z,99.99
2018-09-13T20:16:13.240Z,99.99
2018-09-13T20:17:13.332Z,99.99
2018-09-13T20:18:13.306Z,99.99
2018-09-13T20:19:14.279Z,99.99
2018-09-13T20:20:13.173Z,99.99
2018-09-13T20:21:13.295Z,99.99
2018-09-13T20:22:13.095Z,99.99
2018-09-13T20:23:13.188Z,99.99
2018-09-13T20:24:13.042Z,99.99
2018-09-13T20:25:13.125Z,99.99
2018-09-13T20:26:12.999Z,99.99
2018-09-13T20:27:15.136Z,99.99
2018-09-13T20:31:04.114Z,99.99
2018-09-13T20:32:05.204Z,99.99
2018-09-13T20:33:04.090Z,99.99
2018-09-13T20:34:04.045Z,99.99
2018-09-13T20:35:04.069Z,99.99
2018-09-13T20:36:04.104Z,99.99
2018-09-13T20:37:05.257Z,99.99
2018-09-13T20:38:03.971Z,99.99
2018-09-13T20:39:04.281Z,99.99
2018-09-13T20:40:03.895Z,99.99
2018-09-13T20:41:10.663Z,99.99
2018-09-13T20:42:03.854Z,99.99
2018-09-13T20:43:18.652Z,99.99
2018-09-13T20:44:03.784Z,99.99
2018-09-13T20:45:10.765Z,99.99
2018-09-13T20:46:03.756Z,99.99
2018-09-13T20:47:35.676Z,99.99
2018-09-13T20:48:03.678Z,99.99
2018-09-13T20:49:24.656Z,99.99
2018-09-13T20:50:03.647Z,99.99
2018-09-13T20:51:25.674Z,99.99
2018-09-13T20:52:03.619Z,99.99
2018-09-13T20:53:03.676Z,99.99
2018-09-13T20:54:03.542Z,99.99
2018-09-13T20:55:27.131Z,99.99
2018-09-13T20:56:03.483Z,99.99
2018-09-13T20:57:05.647Z,99.99
2018-09-13T20:58:03.432Z,99.99
2018-09-13T21:17:30.409Z,99.99
2018-09-13T21:18:30.363Z,99.99
2018-09-13T21:19:30.272Z,99.99
2018-09-13T21:20:32.407Z,99.99
2018-09-13T21:21:30.219Z,99.99
2018-09-13T21:22:30.295Z,99.99
2018-09-13T21:23:30.168Z,99.99
2018-09-13T21:24:35.128Z,99.99
2018-09-13T21:25:30.146Z,99.99
2018-09-13T21:26:43.111Z,99.99
2018-09-13T21:27:30.079Z,99.99
2018-09-13T21:28:34.628Z,99.99
2018-09-13T21:29:30.027Z,99.99
2018-09-13T21:30:34.664Z,99.99
2018-09-13T21:31:29.961Z,99.99
2018-09-13T21:32:30.976Z,99.99
2018-09-13T21:33:29.933Z,99.99
2018-09-13T21:34:29.901Z,99.99
2018-09-13T21:35:30.884Z,99.99
2018-09-13T21:36:29.854Z,99.99
2018-09-13T21:37:29.810Z,99.99
2018-09-13T21:38:31.846Z,99.99
2018-09-13T21:39:29.758Z,99.99
2018-09-13T21:40:29.818Z,99.99
2018-09-13T21:41:29.712Z,99.99
2018-09-13T21:42:30.728Z,99.99
2018-09-13T21:43:29.666Z,99.99
2018-09-13T21:44:29.787Z,99.99
2018-09-13T21:45:29.611Z,99.99